Loei, Thailand

5:56 PM ICT on September 25, 2016 (GMT +0700)
Loei | | Change Station

Elev 833 ft 17.45 °N, 101.73 °E | Updated 56 minutes ago

Mostly Cloudy
Mostly Cloudy
82 °F
Feels Like 91 °F
N
2
Wind Variable Wind from Variable

Today
High -- | Low -- °F
--% Chance of Precip.
Yesterday
High -- | Low -- °F
Precip. -- in
Pressure 29.74 in
Visibility 6.2 miles
Clouds Mostly Cloudy 3200 ft
Heat Index 91 °F
Dew Point 77 °F
Humidity 84%
Rainfall 0.00 in
Snow Depth Not available.
6:02 AM 6:06 PM
Waning Crescent, 29% visible
METAR VTUL 251000Z VRB02KT 9999 BKN032 28/25 Q1007
Pressure 29.74 in
Visibility 6.2 miles
Clouds Mostly Cloudy 3200 ft
Heat Index 91 °F
Dew Point 77 °F
Humidity 84%
Rainfall 0.00 in
Snow Depth Not available.
6:02 AM 6:06 PM
Waning Crescent, 29% visible
METAR VTUL 251000Z VRB02KT 9999 BKN032 28/25 Q1007

10-Day Weather Forecast

No radar image for this location.
×

Almanac

Astronomy

Sep. 25, 2016 Rise Set
Actual Time
Civil Twilight
Nautical Twilight
Astronomical Twilight
Moon
Length of Visible Light
Length of Day
Tomorrow will be .
, % of the Moon is Illuminated

Today's Extremes

Country Highs Country Lows

Community

WunderPhotos

Upload Photos

1,941,570 photos uploaded!

WunderBlog® & News

Nearby

Air Quality

  Air Quality AQ Index Pollutant
Not available.

Snow Depth

Station Depth Elevation

Earthquake Activity

City Distance Mag. Time & Date
Minimum magnitude displayed is 2.5.

Coastal Water Temperatures

Place Temperature

Stations

Nearby Weather Stations

Station Location Temp. Windchill Dew Point Humidity Wind Precip. Elev Updated Type